Terminal Aerodrome Forecast
Issued by NWS

Home | Current Version | Previous Version | Text Only | Print | Product List | Glossary On
Versions: 1 2 3 4 5 6 7 8 9 10 11 12 13 14
000
FTUS43 KAPX 210523
TAFTVC
TAF
KTVC 210523Z 2106/2206 20005KT P6SM SCT250 WS015/21040KT
     FM211000 20008KT P6SM FEW200 WS015/24030KT
     FM211300 19009KT P6SM SCT150
     FM211700 18009G17KT P6SM SCT130
     FM212300 18010KT P6SM SCT140 WS015/20035KT=

USA.gov is the U.S. government's official web portal to all federal, state and local government web resources and services.